Time;durP1;ratioP1;P1;durP2;ratioP2;P2;SDS_P1;SDS_P2;PMS_P1;PMS_P2;Temp;Humidity;BMP_temperature;BMP_pressure;BME280_temperature;BME280_humidity;BME280_pressure;Samples;Min_cycle;Max_cycle;Signal;HPM_P1;HPM_P2
2024/01/27 00:01:52;;;;;;;10.70;4.35;;;7.50;71.30;;;;;;5101384;28;20103;-72
2024/01/27 00:04:18;;;;;;;11.03;4.20;;;7.50;71.30;;;;;;5092850;28;20127;-72
2024/01/27 00:06:44;;;;;;;10.70;3.53;;;7.40;71.20;;;;;;5091923;28;20435;-73
2024/01/27 00:09:10;;;;;;;12.77;4.07;;;7.40;71.30;;;;;;5091290;28;20093;-72
2024/01/27 00:11:35;;;;;;;12.93;4.13;;;7.40;72.00;;;;;;5098545;28;20024;-72
2024/01/27 00:14:02;;;;;;;14.05;3.97;;;7.40;71.30;;;;;;5094769;28;20016;-72
2024/01/27 00:16:28;;;;;;;13.40;4.00;;;7.40;71.30;;;;;;5107732;28;20042;-72
2024/01/27 00:18:54;;;;;;;14.48;4.07;;;7.40;71.40;;;;;;5095770;28;20111;-72
2024/01/27 00:21:20;;;;;;;11.50;3.73;;;7.40;71.40;;;;;;5112019;28;20075;-72
2024/01/27 00:23:46;;;;;;;12.75;4.25;;;7.40;71.40;;;;;;5094872;28;20039;-72
2024/01/27 00:26:11;;;;;;;12.33;4.10;;;7.40;71.40;;;;;;5091923;28;20023;-72
2024/01/27 00:28:37;;;;;;;14.05;3.95;;;7.30;71.40;;;;;;5098632;28;20066;-72
2024/01/27 00:31:03;;;;;;;14.50;4.47;;;7.30;71.50;;;;;;5096119;28;20035;-72
2024/01/27 00:33:29;;;;;;;11.13;4.57;;;7.30;71.50;;;;;;5095320;28;20040;-72
2024/01/27 00:35:54;;;;;;;11.45;3.95;;;7.20;71.50;;;;;;5096178;28;20024;-72
2024/01/27 00:38:20;;;;;;;14.27;3.73;;;7.20;71.50;;;;;;5094636;28;20046;-72
2024/01/27 00:40:46;;;;;;;12.83;3.47;;;7.30;71.60;;;;;;5095949;28;20436;-72
2024/01/27 00:43:12;;;;;;;10.25;3.28;;;7.20;71.50;;;;;;5094871;28;20016;-72
2024/01/27 00:45:37;;;;;;;12.63;3.77;;;7.20;71.60;;;;;;5077208;28;20119;-72
2024/01/27 00:48:04;;;;;;;15.20;4.57;;;7.20;72.20;;;;;;5095509;28;20032;-72
2024/01/27 00:50:29;;;;;;;13.32;4.68;;;7.20;71.60;;;;;;5095520;28;20128;-72
2024/01/27 00:52:55;;;;;;;13.07;4.70;;;7.20;71.70;;;;;;5094889;28;20526;-72
2024/01/27 00:55:21;;;;;;;14.45;4.95;;;7.20;71.70;;;;;;5094191;28;20051;-72
2024/01/27 00:57:46;;;;;;;14.23;4.18;;;7.20;71.70;;;;;;5095633;28;20031;-72
2024/01/27 01:00:13;;;;;;;13.52;3.67;;;7.20;71.70;;;;;;5095422;28;20470;-72
2024/01/27 01:02:38;;;;;;;16.25;4.50;;;7.20;71.70;;;;;;5094839;28;20042;-72
2024/01/27 01:05:05;;;;;;;14.10;3.60;;;7.10;71.60;;;;;;5094554;28;20440;-72
2024/01/27 01:07:31;;;;;;;11.82;3.42;;;7.10;71.70;;;;;;5095766;28;20020;-72
2024/01/27 01:09:57;;;;;;;14.30;4.57;;;7.10;71.80;;;;;;5100757;28;20032;-72
2024/01/27 01:12:23;;;;;;;13.32;3.63;;;7.10;71.80;;;;;;5095442;28;20471;-72
2024/01/27 01:14:49;;;;;;;12.05;4.05;;;7.10;71.80;;;;;;5093859;28;20020;-72
2024/01/27 01:17:15;;;;;;;11.73;3.92;;;7.10;71.70;;;;;;5095254;28;20023;-72
2024/01/27 01:19:41;;;;;;;15.00;4.07;;;7.10;71.80;;;;;;5093994;28;20397;-72
2024/01/27 01:22:07;;;;;;;16.17;4.35;;;7.00;71.80;;;;;;5093997;28;20043;-72
2024/01/27 01:24:33;;;;;;;12.05;3.85;;;7.00;71.90;;;;;;5092350;28;20117;-72
2024/01/27 01:26:59;;;;;;;12.93;3.92;;;7.00;71.90;;;;;;5094447;28;20028;-72
2024/01/27 01:29:25;;;;;;;11.95;3.80;;;7.00;71.90;;;;;;5094796;28;20020;-72
2024/01/27 01:31:51;;;;;;;10.03;3.70;;;7.00;71.90;;;;;;5093908;28;20032;-72
2024/01/27 01:34:17;;;;;;;18.13;3.83;;;7.00;71.90;;;;;;5076921;28;20087;-72
2024/01/27 01:36:44;;;;;;;12.80;4.07;;;7.00;72.00;;;;;;5093584;28;20153;-72
2024/01/27 01:39:11;;;;;;;11.80;3.83;;;6.90;72.00;;;;;;5095163;28;20042;-72
2024/01/27 01:41:36;;;;;;;13.03;3.67;;;7.00;72.00;;;;;;5093891;28;20107;-73
2024/01/27 01:44:02;;;;;;;11.65;3.75;;;6.90;72.00;;;;;;5094818;28;20107;-72
2024/01/27 01:46:28;;;;;;;11.07;3.65;;;6.90;72.00;;;;;;5094679;28;20032;-72
2024/01/27 01:48:54;;;;;;;11.93;3.20;;;6.90;72.00;;;;;;5095264;28;20046;-72
2024/01/27 01:51:21;;;;;;;15.88;4.43;;;6.90;72.00;;;;;;5099688;28;20399;-72
2024/01/27 01:53:48;;;;;;;13.90;3.47;;;6.90;72.00;;;;;;5093538;28;20024;-72
2024/01/27 01:56:17;;;;;;;11.27;3.30;;;6.90;72.00;;;;;;5094448;28;20012;-72
2024/01/27 01:58:44;;;;;;;9.33;3.43;;;6.90;72.00;;;;;;5094059;28;20019;-72
2024/01/27 02:01:10;;;;;;;14.65;4.30;;;6.90;72.10;;;;;;5094123;28;20406;-72
2024/01/27 02:03:35;;;;;;;16.40;4.23;;;6.80;72.10;;;;;;5094245;28;20111;-72
2024/01/27 02:06:01;;;;;;;12.90;3.67;;;6.90;72.10;;;;;;5093248;28;20031;-72
2024/01/27 02:08:27;;;;;;;14.40;4.00;;;6.80;72.10;;;;;;5093676;28;20035;-72
2024/01/27 02:10:53;;;;;;;12.25;4.25;;;6.80;72.10;;;;;;5093778;28;20035;-72
2024/01/27 02:13:20;;;;;;;14.13;3.87;;;6.80;72.10;;;;;;5076272;28;20028;-72
2024/01/27 02:15:48;;;;;;;12.30;4.20;;;6.80;72.20;;;;;;5092644;28;20085;-72
2024/01/27 02:18:14;;;;;;;12.60;3.50;;;6.80;72.20;;;;;;5093150;28;20012;-72
2024/01/27 02:20:39;;;;;;;9.57;3.53;;;6.80;72.20;;;;;;5075632;28;20359;-72
2024/01/27 02:23:05;;;;;;;12.10;3.67;;;6.80;72.20;;;;;;5094026;28;20020;-71
2024/01/27 02:25:32;;;;;;;12.10;4.00;;;6.80;72.30;;;;;;5094284;28;20407;-72
2024/01/27 02:27:58;;;;;;;14.53;4.80;;;6.70;72.30;;;;;;5075984;28;20514;-72
2024/01/27 02:30:24;;;;;;;12.60;3.77;;;6.70;72.30;;;;;;5093661;28;20455;-72
2024/01/27 02:32:51;;;;;;;14.83;4.27;;;6.70;72.30;;;;;;5074805;28;20108;-72
2024/01/27 02:35:16;;;;;;;12.43;3.93;;;6.70;72.30;;;;;;5094543;28;20123;-72
2024/01/27 02:37:42;;;;;;;12.17;3.47;;;6.70;72.30;;;;;;5097164;28;20476;-72
2024/01/27 02:40:12;;;;;;;11.70;3.58;;;6.70;72.30;;;;;;5098881;28;20036;-72
2024/01/27 02:42:38;;;;;;;17.10;3.80;;;6.70;72.40;;;;;;5092878;28;20020;-72
2024/01/27 02:45:04;;;;;;;10.87;3.53;;;6.70;72.40;;;;;;5094906;28;20028;-72
2024/01/27 02:47:30;;;;;;;15.10;4.13;;;6.60;72.40;;;;;;5094006;28;20036;-71
2024/01/27 02:49:56;;;;;;;12.27;3.87;;;6.60;72.40;;;;;;5093814;28;20046;-72
2024/01/27 02:52:22;;;;;;;11.40;3.50;;;6.60;72.50;;;;;;5092878;28;20030;-72
2024/01/27 02:54:48;;;;;;;14.37;3.73;;;6.60;72.50;;;;;;5094324;28;20314;-72
2024/01/27 02:57:15;;;;;;;13.87;4.37;;;6.60;72.60;;;;;;5094556;28;20031;-72
2024/01/27 02:59:47;;;;;;;9.98;3.65;;;6.60;72.60;;;;;;5092976;28;20070;-72
2024/01/27 03:02:12;;;;;;;;;;;6.60;72.60;;;;;;5093339;28;20111;-72
2024/01/27 03:04:38;;;;;;;12.53;4.83;;;6.50;72.50;;;;;;5090710;28;19996;-71
2024/01/27 03:07:04;;;;;;;9.67;3.23;;;6.50;72.60;;;;;;5093603;28;20016;-71
2024/01/27 03:09:31;;;;;;;10.53;4.23;;;6.50;72.60;;;;;;5093911;28;20103;-72
2024/01/27 03:11:56;;;;;;;13.83;4.00;;;6.50;72.60;;;;;;5093563;28;20073;-72
2024/01/27 03:14:22;;;;;;;13.47;4.20;;;6.50;72.60;;;;;;5092809;28;20451;-72
2024/01/27 03:16:48;;;;;;;12.13;3.77;;;6.50;72.60;;;;;;5093817;28;20039;-72
2024/01/27 03:19:13;;;;;;;13.73;3.77;;;6.50;72.60;;;;;;5093419;28;20360;-72
2024/01/27 03:21:39;;;;;;;13.43;4.40;;;6.50;72.70;;;;;;5093775;28;20326;-72
2024/01/27 03:24:05;;;;;;;18.10;4.33;;;6.40;72.60;;;;;;5076091;28;20114;-72
2024/01/27 03:26:31;;;;;;;14.43;4.57;;;6.40;72.70;;;;;;5084761;28;20027;-72
2024/01/27 03:28:57;;;;;;;11.27;3.22;;;6.50;72.80;;;;;;5091643;28;20120;-71
2024/01/27 03:31:23;;;;;;;13.33;4.30;;;6.40;72.70;;;;;;5092177;28;20024;-71
2024/01/27 03:33:49;;;;;;;12.27;3.43;;;6.50;72.70;;;;;;5092857;28;20525;-71
2024/01/27 03:36:15;;;;;;;10.40;3.47;;;6.50;72.70;;;;;;5077634;28;20024;-72
2024/01/27 03:38:41;;;;;;;12.13;3.73;;;6.40;72.70;;;;;;5091672;28;20457;-72
2024/01/27 03:41:07;;;;;;;12.40;3.90;;;6.40;72.80;;;;;;5092133;28;20073;-72
2024/01/27 03:43:36;;;;;;;12.13;3.30;;;6.40;72.80;;;;;;5091769;28;20031;-72
2024/01/27 03:46:03;;;;;;;13.03;3.83;;;6.40;72.80;;;;;;5094856;28;20441;-72
2024/01/27 03:48:28;;;;;;;10.97;4.03;;;6.40;72.80;;;;;;5096120;28;20035;-72
2024/01/27 03:50:54;;;;;;;11.47;3.93;;;6.40;72.80;;;;;;5095917;28;20445;-72
2024/01/27 03:53:20;;;;;;;14.13;3.63;;;6.30;72.80;;;;;;5096749;28;20061;-72
2024/01/27 03:55:46;;;;;;;13.57;4.77;;;6.30;72.80;;;;;;5103541;28;20028;-72
2024/01/27 03:58:11;;;;;;;12.17;3.37;;;6.40;72.80;;;;;;5096666;28;20063;-72
2024/01/27 04:00:37;;;;;;;15.37;4.33;;;6.30;72.80;;;;;;5096506;28;20027;-72
2024/01/27 04:03:03;;;;;;;10.67;3.50;;;6.30;72.90;;;;;;5095792;28;20401;-72
2024/01/27 04:05:30;;;;;;;10.03;3.87;;;6.30;72.90;;;;;;5096190;28;20040;-72
2024/01/27 04:07:56;;;;;;;13.10;4.17;;;6.30;72.90;;;;;;5095608;28;20047;-72
2024/01/27 04:10:23;;;;;;;13.03;3.67;;;6.20;72.90;;;;;;5096246;28;20072;-72
2024/01/27 04:12:49;;;;;;;12.03;4.03;;;6.20;72.90;;;;;;5095556;28;20085;-72
2024/01/27 04:15:15;;;;;;;11.83;4.63;;;6.20;73.00;;;;;;5096018;28;20506;-72
2024/01/27 04:17:41;;;;;;;13.07;4.20;;;6.20;73.00;;;;;;5096203;28;20123;-72
2024/01/27 04:20:09;;;;;;;17.80;4.37;;;6.20;73.00;;;;;;5082361;28;20141;-71
2024/01/27 04:22:35;;;;;;;10.47;3.90;;;6.20;73.00;;;;;;5096684;28;20028;-72
2024/01/27 04:25:01;;;;;;;12.63;3.90;;;6.20;73.00;;;;;;5094779;28;20028;-72
2024/01/27 04:27:28;;;;;;;10.70;4.30;;;6.20;73.00;;;;;;5094788;28;20039;-72
2024/01/27 04:29:53;;;;;;;15.00;4.63;;;6.20;73.00;;;;;;5094943;28;20039;-72
2024/01/27 04:32:21;;;;;;;12.53;5.07;;;6.20;73.00;;;;;;5096280;28;20464;-72
2024/01/27 04:34:47;;;;;;;9.57;4.37;;;6.20;73.00;;;;;;5094949;28;20020;-72
2024/01/27 04:37:13;;;;;;;13.07;4.57;;;6.10;73.00;;;;;;5094342;28;20048;-71
2024/01/27 04:39:39;;;;;;;13.30;4.17;;;6.10;72.90;;;;;;5088546;28;20063;-72
2024/01/27 04:42:08;;;;;;;10.90;5.17;;;6.10;72.90;;;;;;5094588;28;20040;-71
2024/01/27 04:44:34;;;;;;;17.67;4.97;;;6.10;73.00;;;;;;5094495;28;20024;-71
2024/01/27 04:47:00;;;;;;;12.73;5.03;;;6.10;73.00;;;;;;5094275;28;20131;-72
2024/01/27 04:49:27;;;;;;;15.80;5.53;;;6.10;73.00;;;;;;5095195;28;20123;-72
2024/01/27 04:51:52;;;;;;;14.03;4.97;;;6.10;73.00;;;;;;5077595;28;20020;-71
2024/01/27 04:54:18;;;;;;;11.37;5.20;;;6.10;73.00;;;;;;5095840;28;20434;-72
2024/01/27 04:56:44;;;;;;;15.07;5.87;;;6.10;73.00;;;;;;5093521;28;20055;-71
2024/01/27 04:59:09;;;;;;;19.43;5.50;;;6.10;73.00;;;;;;5095479;28;20031;-71
2024/01/27 05:01:35;;;;;;;16.73;5.70;;;6.10;73.10;;;;;;5077476;28;20016;-71
2024/01/27 05:04:01;;;;;;;15.77;6.47;;;6.10;73.10;;;;;;5095116;28;20099;-71
2024/01/27 05:06:27;;;;;;;16.27;5.97;;;6.10;73.10;;;;;;5094330;28;20349;-72
2024/01/27 05:08:52;;;;;;;13.77;5.33;;;6.00;73.10;;;;;;5095234;28;20024;-71
2024/01/27 05:11:32;;;;;;;15.23;6.10;;;6.00;73.10;;;;;;5095230;28;20032;-72
2024/01/27 05:14:01;;;;;;;17.63;5.40;;;6.10;73.10;;;;;;5102849;28;20024;-71
2024/01/27 05:16:27;;;;;;;15.13;6.37;;;6.10;73.10;;;;;;5093542;28;20031;-72
2024/01/27 05:18:53;;;;;;;12.77;5.97;;;6.00;73.10;;;;;;5094158;28;20016;-72
2024/01/27 05:21:19;;;;;;;16.23;6.13;;;6.00;73.10;;;;;;5094879;28;20506;-72
2024/01/27 05:23:45;;;;;;;13.27;6.03;;;6.00;73.20;;;;;;5094179;28;20085;-71
2024/01/27 05:26:11;;;;;;;11.83;5.93;;;6.00;73.20;;;;;;5094882;28;20032;-71
2024/01/27 05:28:37;;;;;;;17.63;6.17;;;6.00;73.20;;;;;;5094329;28;20036;-72
2024/01/27 05:31:06;;;;;;;17.80;7.63;;;6.00;73.20;;;;;;5093692;28;20441;-71
2024/01/27 05:33:32;;;;;;;12.87;6.33;;;6.00;73.20;;;;;;5094060;28;20028;-71
2024/01/27 05:35:58;;;;;;;15.10;6.60;;;6.00;73.20;;;;;;5092848;28;20028;-72
2024/01/27 05:38:24;;;;;;;13.87;5.93;;;6.00;73.20;;;;;;5091274;28;20173;-71
2024/01/27 05:40:50;;;;;;;16.13;6.20;;;6.00;73.30;;;;;;5087346;28;20029;-71
2024/01/27 05:43:16;;;;;;;12.07;5.27;;;6.00;73.30;;;;;;5090147;28;20040;-71
2024/01/27 05:45:42;;;;;;;14.67;6.33;;;6.00;73.30;;;;;;5077080;28;20441;-71
2024/01/27 05:48:08;;;;;;;16.27;6.17;;;6.00;73.30;;;;;;5083137;28;20109;-71
2024/01/27 05:50:35;;;;;;;13.07;6.60;;;6.00;73.30;;;;;;5079423;28;20040;-71
2024/01/27 05:53:01;;;;;;;15.63;5.83;;;5.90;73.30;;;;;;5092157;28;20051;-71
2024/01/27 05:55:27;;;;;;;14.00;6.17;;;5.90;73.30;;;;;;5080745;28;20075;-71
2024/01/27 05:57:52;;;;;;;14.17;6.03;;;5.90;73.30;;;;;;5074455;28;20331;-71
2024/01/27 06:00:18;;;;;;;17.13;6.73;;;5.90;73.40;;;;;;5083583;28;20039;-71
2024/01/27 06:02:44;;;;;;;16.53;7.10;;;5.90;73.40;;;;;;5092326;28;20368;-71
2024/01/27 06:05:10;;;;;;;14.97;6.83;;;5.90;73.40;;;;;;5093122;28;20028;-71
2024/01/27 06:07:38;;;;;;;15.47;6.63;;;5.80;73.40;;;;;;5093514;28;20028;-71
2024/01/27 06:10:07;;;;;;;16.37;7.17;;;5.80;73.40;;;;;;5091219;28;20074;-71
2024/01/27 06:12:32;;;;;;;14.80;6.57;;;5.80;73.50;;;;;;5092198;28;20330;-71
2024/01/27 06:14:58;;;;;;;13.73;6.30;;;5.80;73.50;;;;;;5093431;28;20119;-71
2024/01/27 06:17:24;;;;;;;16.87;6.60;;;5.80;73.50;;;;;;5092868;28;20024;-72
2024/01/27 06:19:50;;;;;;;13.07;6.37;;;5.80;73.50;;;;;;5092678;28;20131;-71
2024/01/27 06:22:15;;;;;;;15.03;7.40;;;5.80;73.60;;;;;;5091910;28;20082;-71
2024/01/27 06:24:43;;;;;;;18.70;7.23;;;5.80;73.50;;;;;;5091263;28;20028;-70
2024/01/27 06:27:09;;;;;;;14.83;6.23;;;5.80;73.60;;;;;;5094666;28;20031;-71
2024/01/27 06:29:35;;;;;;;15.33;6.43;;;5.80;73.60;;;;;;5093025;28;20028;-71
2024/01/27 06:32:00;;;;;;;14.70;7.00;;;5.80;74.30;;;;;;5090861;28;20023;-71
2024/01/27 06:34:26;;;;;;;12.87;6.00;;;5.80;73.60;;;;;;5091756;28;20027;-71
2024/01/27 06:36:52;;;;;;;12.73;6.30;;;5.70;73.50;;;;;;5091054;28;20136;-72
2024/01/27 06:39:18;;;;;;;12.20;6.47;;;5.70;73.60;;;;;;5091622;28;20036;-71
2024/01/27 06:41:44;;;;;;;13.20;6.27;;;5.70;73.50;;;;;;5092557;28;20435;-71
2024/01/27 06:44:09;;;;;;;18.40;7.00;;;5.70;73.60;;;;;;5093591;28;20024;-71
2024/01/27 06:46:35;;;;;;;15.53;6.90;;;5.70;73.60;;;;;;5095483;28;20044;-72
2024/01/27 06:49:01;;;;;;;12.47;6.60;;;5.70;73.60;;;;;;5104503;28;20054;-72
2024/01/27 06:51:27;;;;;;;16.13;6.53;;;5.70;73.60;;;;;;5094592;28;20112;-72
2024/01/27 06:53:53;;;;;;;15.33;6.90;;;5.70;73.60;;;;;;5094342;28;20103;-71
2024/01/27 06:56:19;;;;;;;14.90;7.43;;;5.70;73.70;;;;;;5094025;28;20024;-71
2024/01/27 06:58:44;;;;;;;13.30;7.03;;;5.60;73.60;;;;;;5095295;28;20065;-71
2024/01/27 07:01:10;;;;;;;12.77;7.20;;;5.70;73.70;;;;;;5090657;28;20117;-71
2024/01/27 07:03:36;;;;;;;13.40;7.17;;;5.60;73.60;;;;;;5094084;28;20461;-71
2024/01/27 07:06:02;;;;;;;15.40;7.20;;;5.60;73.70;;;;;;5090489;28;20020;-71
2024/01/27 07:08:27;;;;;;;17.33;7.43;;;5.60;73.70;;;;;;5091821;28;20028;-71
2024/01/27 07:10:53;;;;;;;16.80;6.83;;;5.60;73.70;;;;;;5094543;28;20051;-71
2024/01/27 07:13:19;;;;;;;14.27;6.90;;;5.60;73.70;;;;;;5079421;28;20036;-72
2024/01/27 07:15:45;;;;;;;18.70;7.07;;;5.60;73.80;;;;;;5094663;28;20027;-71
2024/01/27 07:18:11;;;;;;;14.87;7.10;;;5.60;73.70;;;;;;5094460;28;20024;-72
2024/01/27 07:20:37;;;;;;;18.23;7.97;;;5.60;73.70;;;;;;5094000;28;20031;-72
2024/01/27 07:23:02;;;;;;;17.40;6.40;;;5.60;73.70;;;;;;5091011;28;20035;-71
2024/01/27 07:25:29;;;;;;;12.97;7.53;;;5.60;73.70;;;;;;5093678;28;20031;-71
2024/01/27 07:27:55;;;;;;;14.50;7.53;;;5.60;73.70;;;;;;5093182;28;20040;-70
2024/01/27 07:30:21;;;;;;;15.20;7.37;;;5.60;73.60;;;;;;5090527;28;20035;-69
2024/01/27 07:32:46;;;;;;;15.20;6.53;;;5.60;73.50;;;;;;5091334;28;20020;-68
2024/01/27 07:35:12;;;;;;;13.93;6.70;;;5.60;73.60;;;;;;5092752;28;20341;-69
2024/01/27 07:37:38;;;;;;;14.37;7.40;;;5.60;73.60;;;;;;5092703;28;20456;-68
2024/01/27 07:40:05;;;;;;;15.23;6.80;;;5.70;73.60;;;;;;5090501;28;20056;-68
2024/01/27 07:42:31;;;;;;;16.60;7.57;;;5.60;73.60;;;;;;5091624;28;20036;-67
2024/01/27 07:44:57;;;;;;;15.40;6.93;;;5.70;73.60;;;;;;5091795;28;20020;-69
2024/01/27 07:47:23;;;;;;;16.07;7.87;;;5.70;73.60;;;;;;5090827;28;20039;-67
2024/01/27 07:49:49;;;;;;;17.20;8.10;;;5.70;73.50;;;;;;5092141;28;20024;-69
2024/01/27 07:52:14;;;;;;;16.37;7.93;;;5.70;73.60;;;;;;5087768;28;20526;-69
2024/01/27 07:54:40;;;;;;;17.53;7.73;;;5.70;73.60;;;;;;5094255;28;20453;-69
2024/01/27 07:57:06;;;;;;;15.80;7.20;;;5.70;73.50;;;;;;5094269;28;20085;-69
2024/01/27 07:59:32;;;;;;;17.00;7.13;;;5.80;73.90;;;;;;5094412;28;20031;-69
2024/01/27 08:01:59;;;;;;;16.37;7.43;;;5.80;73.60;;;;;;5094071;28;20356;-69
2024/01/27 08:04:25;;;;;;;14.40;7.00;;;5.80;73.70;;;;;;5094120;28;20093;-68
2024/01/27 08:06:53;;;;;;;13.87;6.83;;;5.80;73.70;;;;;;5093836;28;20119;-69
2024/01/27 08:09:19;;;;;;;14.27;7.47;;;5.80;73.70;;;;;;5094108;28;20421;-69
2024/01/27 08:11:45;;;;;;;16.57;7.53;;;5.80;73.60;;;;;;5092328;28;20024;-70
2024/01/27 08:14:11;;;;;;;18.30;7.80;;;5.80;73.60;;;;;;5093846;28;20158;-69
2024/01/27 08:16:37;;;;;;;13.37;7.53;;;5.80;73.60;;;;;;5094111;28;20032;-69
2024/01/27 08:19:03;;;;;;;17.70;7.40;;;5.80;73.60;;;;;;5092760;28;20035;-69
2024/01/27 08:21:29;;;;;;;14.00;7.67;;;5.90;73.70;;;;;;5093629;28;20043;-69
2024/01/27 08:23:55;;;;;;;17.17;7.50;;;5.90;73.60;;;;;;5093847;28;20032;-69
2024/01/27 08:26:21;;;;;;;16.30;7.53;;;6.00;73.50;;;;;;5093670;28;20046;-69
2024/01/27 08:28:49;;;;;;;15.27;8.20;;;6.00;73.50;;;;;;5094019;28;20043;-68
2024/01/27 08:31:15;;;;;;;18.10;8.33;;;6.00;73.40;;;;;;5092204;28;20110;-68
2024/01/27 08:33:40;;;;;;;17.03;7.90;;;6.10;73.40;;;;;;5075555;28;20033;-68
2024/01/27 08:36:06;;;;;;;17.23;7.60;;;6.10;73.30;;;;;;5092079;28;20102;-69
2024/01/27 08:38:32;;;;;;;16.10;7.70;;;6.20;73.20;;;;;;5097842;28;20036;-69
2024/01/27 08:40:58;;;;;;;13.37;7.70;;;6.30;73.70;;;;;;5097341;28;20059;-70
2024/01/27 08:43:24;;;;;;;17.37;8.10;;;6.40;72.90;;;;;;5099833;28;20028;-69
2024/01/27 08:45:49;;;;;;;12.93;7.70;;;6.50;72.70;;;;;;5108438;28;20028;-69
2024/01/27 08:48:16;;;;;;;17.00;8.17;;;6.60;72.60;;;;;;5103226;28;20040;-70
2024/01/27 08:50:42;;;;;;;16.00;7.67;;;6.70;72.50;;;;;;5097119;28;20110;-70
2024/01/27 08:53:07;;;;;;;17.13;7.90;;;6.80;72.30;;;;;;5095782;28;20198;-70
2024/01/27 08:55:33;;;;;;;14.37;7.47;;;6.90;72.10;;;;;;5097574;28;20020;-71
2024/01/27 08:57:59;;;;;;;14.10;8.07;;;7.00;71.80;;;;;;5084523;28;20032;-70
2024/01/27 09:00:25;;;;;;;19.33;8.77;;;7.10;71.60;;;;;;5096029;28;20036;-70
2024/01/27 09:02:51;;;;;;;14.57;8.90;;;7.20;71.40;;;;;;5096227;28;20031;-69
2024/01/27 09:05:17;;;;;;;17.00;8.60;;;7.30;71.20;;;;;;5099562;28;20032;-69
2024/01/27 09:07:43;;;;;;;16.13;7.90;;;7.40;71.10;;;;;;5096918;28;20085;-69
2024/01/27 09:10:12;;;;;;;19.67;8.50;;;7.50;70.90;;;;;;5097170;28;20092;-69
2024/01/27 09:12:38;;;;;;;13.13;6.97;;;7.60;70.70;;;;;;5095789;28;20182;-69
2024/01/27 09:15:05;;;;;;;18.47;9.13;;;7.70;70.40;;;;;;5095462;28;20031;-70
2024/01/27 09:17:31;;;;;;;16.03;8.93;;;7.80;70.20;;;;;;5096772;28;20032;-69
2024/01/27 09:19:56;;;;;;;17.25;8.73;;;7.90;70.10;;;;;;5096700;28;20093;-72
2024/01/27 09:22:22;;;;;;;17.23;8.60;;;8.00;70.00;;;;;;5096823;28;20449;-71
2024/01/27 09:24:48;;;;;;;18.02;8.65;;;8.00;69.80;;;;;;5095479;28;20047;-71
2024/01/27 09:27:14;;;;;;;18.17;9.07;;;8.10;69.70;;;;;;5095425;28;20032;-71
2024/01/27 09:29:39;;;;;;;15.85;8.25;;;8.10;69.60;;;;;;5096308;28;20036;-71
2024/01/27 09:32:05;;;;;;;12.75;7.80;;;8.10;69.60;;;;;;5086664;28;20028;-71
2024/01/27 09:34:31;;;;;;;16.17;8.50;;;8.10;69.50;;;;;;5093676;28;20059;-70
2024/01/27 09:36:57;;;;;;;17.15;8.18;;;8.00;69.50;;;;;;5096635;28;20405;-70
2024/01/27 09:39:22;;;;;;;14.57;7.97;;;7.90;69.70;;;;;;5095156;28;20165;-69
2024/01/27 09:41:49;;;;;;;18.20;8.38;;;7.90;69.90;;;;;;5096161;28;20165;-69
2024/01/27 09:44:19;;;;;;;17.02;7.88;;;7.80;69.90;;;;;;5094890;28;20124;-69
2024/01/27 09:46:47;;;;;;;16.17;8.17;;;7.80;70.10;;;;;;5112760;27;20036;-68
2024/01/27 09:49:14;;;;;;;15.68;8.85;;;7.90;70.00;;;;;;5095823;28;20048;-69
2024/01/27 09:51:43;;;;;;;15.80;8.68;;;7.90;69.90;;;;;;5087997;28;20031;-69
2024/01/27 09:54:09;;;;;;;12.82;8.23;;;8.10;69.70;;;;;;5094921;28;20045;-69
2024/01/27 09:56:35;;;;;;;16.75;8.45;;;8.30;69.40;;;;;;5095448;28;20093;-69
2024/01/27 09:59:01;;;;;;;15.15;7.47;;;8.50;69.10;;;;;;5095200;28;20020;-69
2024/01/27 10:01:28;;;;;;;15.75;8.35;;;8.60;68.80;;;;;;5095919;28;20028;-69
2024/01/27 10:03:55;;;;;;;13.60;7.30;;;8.70;68.50;;;;;;5094731;28;20066;-69
2024/01/27 10:06:21;;;;;;;19.42;8.77;;;8.90;68.40;;;;;;5095558;28;20032;-69
2024/01/27 10:08:54;;;;;;;13.75;7.93;;;9.00;68.10;;;;;;5094453;28;20116;-69
2024/01/27 10:11:21;;;;;;;15.82;8.32;;;9.10;67.80;;;;;;5094786;28;20108;-69
2024/01/27 10:13:55;;;;;;;17.17;7.88;;;9.30;67.60;;;;;;5094493;28;20016;-69
2024/01/27 10:16:21;;;;;;;14.02;7.93;;;9.40;68.00;;;;;;5095828;28;20456;-70
2024/01/27 10:18:47;;;;;;;17.58;8.27;;;9.60;67.00;;;;;;5095187;28;20035;-69
2024/01/27 10:21:18;;;;;;;19.38;8.85;;;9.70;66.80;;;;;;5094731;28;20052;-69
2024/01/27 10:23:44;;;;;;;21.88;7.93;;;9.80;66.40;;;;;;5111758;28;20028;-69
2024/01/27 10:26:10;;;;;;;13.38;7.55;;;10.00;66.30;;;;;;5094794;28;20016;-69
2024/01/27 10:28:36;;;;;;;18.45;7.60;;;10.10;66.00;;;;;;5095192;28;20057;-69
2024/01/27 10:31:11;;;;;;;16.95;7.65;;;10.20;65.80;;;;;;5093287;28;20137;-70
2024/01/27 10:33:50;;;;;;;16.95;8.63;;;10.30;65.60;;;;;;5084122;28;20036;-69
2024/01/27 10:36:16;;;;;;;16.58;6.93;;;10.40;65.50;;;;;;5095486;28;20036;-69
2024/01/27 10:38:42;;;;;;;15.27;8.50;;;10.50;65.20;;;;;;5094181;28;20024;-69
2024/01/27 10:41:12;;;;;;;16.33;8.07;;;10.60;65.10;;;;;;5093443;28;20062;-69
2024/01/27 10:43:39;;;;;;;19.40;7.70;;;10.60;64.90;;;;;;5095408;28;20460;-69
2024/01/27 10:46:06;;;;;;;16.75;8.05;;;10.70;64.70;;;;;;5111254;28;20051;-69
2024/01/27 10:48:39;;;;;;;19.40;7.25;;;10.70;64.60;;;;;;5110598;28;20380;-69
2024/01/27 10:51:09;;;;;;;13.60;6.57;;;10.70;64.60;;;;;;5093703;28;20032;-69
2024/01/27 10:53:37;;;;;;;18.50;7.80;;;10.90;64.60;;;;;;5111202;28;20032;-69
2024/01/27 10:56:08;;;;;;;13.90;7.60;;;10.90;64.40;;;;;;5094734;28;20603;-69
2024/01/27 10:58:41;;;;;;;14.13;7.18;;;11.00;64.30;;;;;;5093899;28;20077;-69
2024/01/27 11:01:11;;;;;;;16.38;8.15;;;11.00;64.20;;;;;;5093969;28;20386;-69
2024/01/27 11:03:39;;;;;;;15.75;7.25;;;11.00;63.80;;;;;;5093066;28;20020;-70
2024/01/27 11:06:06;;;;;;;12.57;6.20;;;11.10;63.90;;;;;;5076926;28;20027;-69
2024/01/27 11:08:33;;;;;;;18.48;7.55;;;11.10;63.80;;;;;;5094747;28;20059;-69
2024/01/27 11:11:00;;;;;;;13.82;6.65;;;11.20;63.60;;;;;;5093699;28;20107;-69
2024/01/27 11:13:29;;;;;;;14.65;6.78;;;11.20;63.50;;;;;;5093790;28;20020;-70
2024/01/27 11:15:55;;;;;;;15.27;6.70;;;11.20;63.40;;;;;;5110036;28;20359;-70
2024/01/27 11:18:21;;;;;;;11.45;5.60;;;11.30;63.40;;;;;;5093835;28;20032;-70
2024/01/27 11:20:47;;;;;;;17.02;6.70;;;11.30;63.30;;;;;;5106868;28;20024;-70
2024/01/27 11:23:14;;;;;;;15.02;6.50;;;11.30;63.20;;;;;;5094693;28;20106;-69
2024/01/27 11:25:40;;;;;;;11.88;5.57;;;11.40;63.20;;;;;;5093465;28;20373;-69
2024/01/27 11:28:13;;;;;;;12.82;5.97;;;11.40;63.20;;;;;;5093755;28;20051;-69
2024/01/27 11:30:39;;;;;;;15.45;5.75;;;11.40;63.00;;;;;;5094118;28;20036;-69
2024/01/27 11:33:06;;;;;;;12.32;4.95;;;11.30;63.00;;;;;;5080487;28;20031;-69
2024/01/27 11:35:32;;;;;;;12.23;6.25;;;11.30;63.00;;;;;;5093705;28;20349;-69
2024/01/27 11:37:58;;;;;;;15.40;6.03;;;11.20;62.90;;;;;;5094845;28;20031;-69
2024/01/27 11:40:23;;;;;;;12.07;6.18;;;11.20;62.90;;;;;;5093662;28;20028;-69
2024/01/27 11:43:00;;;;;;;12.68;5.85;;;11.10;62.90;;;;;;5094385;28;20032;-71
2024/01/27 11:45:28;;;;;;;16.40;6.38;;;11.10;62.90;;;;;;5094539;28;20032;-69
2024/01/27 11:47:56;;;;;;;13.10;5.93;;;11.00;63.00;;;;;;5110317;28;20055;-69
2024/01/27 11:50:23;;;;;;;13.43;5.97;;;10.90;63.10;;;;;;5079910;28;20032;-69
2024/01/27 11:52:49;;;;;;;11.30;5.30;;;10.90;63.20;;;;;;5094725;28;20031;-69
2024/01/27 11:55:15;;;;;;;15.32;6.65;;;10.80;63.20;;;;;;5094012;28;20060;-71
2024/01/27 11:57:42;;;;;;;15.32;6.22;;;10.80;63.30;;;;;;5094788;28;20101;-69
2024/01/27 12:00:11;;;;;;;12.02;5.13;;;10.70;63.40;;;;;;5093208;28;20032;-69
2024/01/27 12:02:41;;;;;;;16.45;5.85;;;10.70;63.60;;;;;;5093736;28;20028;-69
2024/01/27 12:05:08;;;;;;;13.63;6.10;;;10.70;63.70;;;;;;5093739;28;20035;-68
2024/01/27 12:07:34;;;;;;;13.32;5.88;;;10.60;63.70;;;;;;5094655;28;20435;-69
2024/01/27 12:10:00;;;;;;;14.88;6.00;;;10.60;63.80;;;;;;5098202;28;20024;-68
2024/01/27 12:12:25;;;;;;;15.02;6.22;;;10.50;63.80;;;;;;5098533;28;20073;-70
2024/01/27 12:14:52;;;;;;;11.93;5.85;;;10.50;63.90;;;;;;5088427;28;20024;-69
2024/01/27 12:17:19;;;;;;;12.93;5.32;;;10.40;64.00;;;;;;5067318;28;20031;-69
2024/01/27 12:19:49;;;;;;;14.52;5.75;;;10.40;64.00;;;;;;5085335;28;20028;-70
2024/01/27 12:22:27;;;;;;;13.50;5.20;;;10.40;64.10;;;;;;5082969;28;20035;-67
2024/01/27 12:25:17;;;;;;;16.77;6.60;;;10.30;64.00;;;;;;5078379;28;20016;-71
2024/01/27 12:27:43;;;;;;;15.00;5.78;;;10.30;64.30;;;;;;5084701;28;20059;-71
2024/01/27 12:30:10;;;;;;;13.73;5.25;;;10.20;64.30;;;;;;5086795;28;20127;-68
2024/01/27 12:32:36;;;;;;;12.50;5.93;;;10.20;64.30;;;;;;5087766;28;20043;-70
2024/01/27 12:35:06;;;;;;;16.60;5.93;;;10.20;64.40;;;;;;5078698;28;20028;-69
2024/01/27 12:37:32;;;;;;;14.68;5.63;;;10.20;64.30;;;;;;5077377;28;20119;-70
2024/01/27 12:39:58;;;;;;;15.63;4.70;;;10.20;64.20;;;;;;5081009;28;20180;-70
2024/01/27 12:42:23;;;;;;;14.10;4.60;;;10.10;64.10;;;;;;5095525;28;20024;-70